createdAt,value
2023-03-26T00:00:41.216Z,77.1190
2023-03-26T00:01:43.439Z,76.4740
2023-03-26T00:02:45.659Z,77.2702
2023-03-26T00:03:47.770Z,77.0462
2023-03-26T00:04:49.935Z,76.7020
2023-03-26T00:05:52.352Z,77.3466
2023-03-26T00:06:54.729Z,77.2332
2023-03-26T00:07:56.906Z,77.0492
2023-03-26T00:08:59.056Z,76.9107
2023-03-26T00:10:01.439Z,76.8845
2023-03-26T00:12:05.660Z,76.7301
2023-03-26T00:13:07.779Z,77.0238
2023-03-26T00:14:09.979Z,76.3913
2023-03-26T00:15:12.068Z,76.8305
2023-03-26T00:16:14.264Z,76.9481
2023-03-26T00:17:16.452Z,76.7153
2023-03-26T00:18:18.612Z,76.2088
2023-03-26T00:19:20.787Z,75.6124
2023-03-26T00:21:25.023Z,76.0464
2023-03-26T00:22:27.232Z,75.9586
2023-03-26T00:23:29.385Z,76.7773
2023-03-26T00:24:31.547Z,77.3075
2023-03-26T00:25:33.730Z,77.5739
2023-03-26T00:27:37.906Z,75.4434
2023-03-26T00:28:40.134Z,77.2094
2023-03-26T00:29:42.240Z,77.7685
2023-03-26T00:30:44.421Z,76.5805
2023-03-26T00:31:46.791Z,76.1408
2023-03-26T00:32:53.327Z,75.8801
2023-03-26T00:33:52.684Z,76.3727
2023-03-26T00:34:54.805Z,77.3930
2023-03-26T00:35:57.126Z,76.0306
2023-03-26T00:36:59.475Z,75.2796
2023-03-26T00:38:01.655Z,75.8113
2023-03-26T00:39:03.813Z,76.2169
2023-03-26T00:40:05.995Z,76.0521
2023-03-26T00:41:08.181Z,75.2658
2023-03-26T00:42:10.390Z,75.5406
2023-03-26T00:43:12.547Z,75.1262
2023-03-26T00:44:14.711Z,75.6443
2023-03-26T00:45:16.885Z,74.8355
2023-03-26T00:46:19.128Z,77.3608
2023-03-26T00:47:21.304Z,77.7899
2023-03-26T00:48:31.576Z,77.3737
2023-03-26T00:49:27.221Z,76.3145
2023-03-26T00:50:29.376Z,76.7759
2023-03-26T00:51:31.574Z,77.0545
2023-03-26T00:52:33.769Z,78.3204
2023-03-26T00:54:38.098Z,77.8466
2023-03-26T00:55:40.296Z,76.5782
2023-03-26T00:56:42.425Z,76.6939
2023-03-26T00:57:44.559Z,77.2778
2023-03-26T00:58:46.697Z,78.1412
2023-03-26T00:59:48.877Z,78.6184
2023-03-26T01:00:50.984Z,79.0638
2023-03-26T01:02:55.270Z,77.9865
2023-03-26T01:04:07.601Z,78.2564
2023-03-26T01:05:01.131Z,77.4820
2023-03-26T01:06:03.325Z,78.0939
2023-03-26T01:07:05.476Z,78.9082
2023-03-26T01:08:07.661Z,78.8682
2023-03-26T01:09:09.827Z,78.4487
2023-03-26T01:11:14.207Z,79.1241
2023-03-26T01:12:16.616Z,79.4240
2023-03-26T01:13:18.753Z,78.9652
2023-03-26T01:14:20.947Z,79.3186
2023-03-26T01:15:23.103Z,79.5484
2023-03-26T01:16:25.306Z,78.4681
2023-03-26T01:17:27.469Z,79.7438
2023-03-26T01:18:29.705Z,78.6919
2023-03-26T01:19:31.838Z,79.2850
2023-03-26T01:20:33.961Z,79.3180
2023-03-26T01:21:36.103Z,80.0371
2023-03-26T01:22:38.275Z,80.1323
2023-03-26T01:23:40.352Z,79.8033
2023-03-26T01:24:42.564Z,79.5910
2023-03-26T01:25:44.703Z,80.3508
2023-03-26T01:26:46.896Z,80.0580
2023-03-26T01:27:49.003Z,80.7160
2023-03-26T01:28:51.223Z,80.1673
2023-03-26T01:29:53.336Z,79.2573
2023-03-26T01:30:55.529Z,79.9020
2023-03-26T01:31:57.664Z,80.1442
2023-03-26T01:32:59.912Z,80.0870
2023-03-26T01:34:02.090Z,80.6859
2023-03-26T01:35:04.268Z,79.6987
2023-03-26T01:36:06.449Z,81.1589
2023-03-26T01:37:08.724Z,80.5740
2023-03-26T01:38:11.067Z,80.1890
2023-03-26T01:39:13.729Z,80.9134
2023-03-26T01:40:15.884Z,80.7432
2023-03-26T01:41:18.114Z,80.7849
2023-03-26T01:42:20.311Z,80.2359
2023-03-26T01:43:22.517Z,80.6493
2023-03-26T01:44:24.691Z,80.2529
2023-03-26T01:45:26.914Z,80.6436
2023-03-26T01:46:29.200Z,81.0365
2023-03-26T01:47:31.362Z,81.2715
2023-03-26T01:48:33.495Z,82.4603
2023-03-26T01:49:35.734Z,82.8629
2023-03-26T01:50:37.927Z,81.7986
2023-03-26T01:51:40.273Z,81.1547
2023-03-26T01:52:42.484Z,82.3891
2023-03-26T01:53:44.665Z,81.8665
2023-03-26T01:54:46.894Z,82.4238
2023-03-26T01:55:49.046Z,82.0298
2023-03-26T01:56:51.297Z,82.0659
2023-03-26T01:57:53.460Z,82.0350
2023-03-26T01:58:55.659Z,81.8613
2023-03-26T01:59:57.882Z,82.9337
2023-03-26T02:01:00.038Z,82.4262
2023-03-26T02:02:02.331Z,83.7753
2023-03-26T02:03:04.564Z,83.4624
2023-03-26T02:04:06.864Z,83.4000
2023-03-26T02:06:11.078Z,83.4968
2023-03-26T02:07:13.267Z,83.4296
2023-03-26T02:11:23.220Z,82.7245
2023-03-26T02:13:27.744Z,82.0872
2023-03-26T02:14:29.949Z,81.7573
2023-03-26T02:15:32.131Z,81.9450
2023-03-26T02:16:34.374Z,82.4879
2023-03-26T02:17:36.623Z,82.3776
2023-03-26T02:18:38.888Z,82.0671
2023-03-26T02:20:43.071Z,83.1906
2023-03-26T02:21:45.252Z,82.9400
2023-03-26T02:22:47.480Z,82.2171
2023-03-26T02:23:49.694Z,82.8539
2023-03-26T02:24:51.878Z,82.9805
2023-03-26T02:25:54.154Z,84.2966
2023-03-26T02:26:56.711Z,84.0843
2023-03-26T02:27:58.919Z,84.1235
2023-03-26T02:29:01.174Z,83.6197
2023-03-26T02:30:03.394Z,84.2028
2023-03-26T02:31:05.632Z,83.5996
2023-03-26T02:32:07.823Z,83.2279
2023-03-26T02:33:10.072Z,84.4979
2023-03-26T02:34:12.256Z,85.0648
2023-03-26T02:35:14.551Z,84.3971
2023-03-26T02:36:16.883Z,84.2784
2023-03-26T02:37:19.139Z,84.0154
2023-03-26T02:38:21.364Z,83.5843
2023-03-26T02:39:23.812Z,84.5933
2023-03-26T02:40:25.989Z,84.4496
2023-03-26T02:41:28.219Z,84.4781
2023-03-26T02:42:30.405Z,84.1149
2023-03-26T02:43:32.603Z,83.4126
2023-03-26T02:45:36.954Z,83.6631
2023-03-26T02:46:39.182Z,83.2122
2023-03-26T02:47:41.425Z,82.5562
2023-03-26T02:48:43.623Z,82.6284
2023-03-26T02:49:45.896Z,82.4931
2023-03-26T02:50:48.052Z,82.2520
2023-03-26T02:51:50.275Z,82.0460
2023-03-26T02:52:52.433Z,81.3922
2023-03-26T02:53:54.667Z,81.8543
2023-03-26T02:54:56.864Z,82.2146
2023-03-26T02:57:01.176Z,81.7928
2023-03-26T02:58:03.390Z,82.1912
2023-03-26T02:59:05.630Z,81.8484
2023-03-26T03:00:07.867Z,82.3105
2023-03-26T03:01:10.090Z,81.9367
2023-03-26T03:02:12.308Z,82.0619
2023-03-26T03:03:14.460Z,82.4620
2023-03-26T03:04:16.731Z,82.4644
2023-03-26T03:05:18.965Z,82.8931
2023-03-26T03:06:21.133Z,82.2402
2023-03-26T03:07:23.396Z,81.7307
2023-03-26T03:08:25.623Z,83.1405
2023-03-26T03:09:27.791Z,82.7430
2023-03-26T03:10:29.940Z,82.8856
2023-03-26T03:11:32.187Z,82.8512
2023-03-26T03:12:34.389Z,83.1599
2023-03-26T03:13:36.568Z,84.2464
2023-03-26T03:14:38.745Z,83.9752
2023-03-26T03:15:40.930Z,83.5281
2023-03-26T03:16:43.158Z,83.8875
2023-03-26T03:17:45.423Z,84.1728
2023-03-26T03:18:47.595Z,85.5250
2023-03-26T03:19:49.750Z,86.4639
2023-03-26T03:20:51.986Z,85.9060
2023-03-26T03:21:54.163Z,86.2808
2023-03-26T03:22:56.466Z,86.6744
2023-03-26T03:24:00.071Z,87.9339
2023-03-26T03:25:02.712Z,87.6737
2023-03-26T03:26:04.941Z,87.4549
2023-03-26T03:27:07.127Z,87.2318
2023-03-26T03:28:09.274Z,86.9615
2023-03-26T03:29:11.503Z,87.6163
2023-03-26T03:30:13.735Z,87.3416
2023-03-26T03:31:15.936Z,86.8350
2023-03-26T03:32:18.132Z,86.4732
2023-03-26T03:33:20.331Z,86.6655
2023-03-26T03:34:22.517Z,87.1048
2023-03-26T03:35:24.805Z,86.3803
2023-03-26T03:36:27.051Z,86.0201
2023-03-26T03:37:29.221Z,87.2562
2023-03-26T03:38:31.422Z,86.7783
2023-03-26T03:39:33.675Z,85.6571
2023-03-26T03:40:35.856Z,85.0243
2023-03-26T03:41:38.069Z,85.9336
2023-03-26T03:42:40.310Z,87.3223
2023-03-26T03:44:44.702Z,88.4478
2023-03-26T03:45:46.956Z,88.9859
2023-03-26T03:46:49.200Z,88.8369
2023-03-26T03:47:51.406Z,88.6629
2023-03-26T03:48:53.580Z,89.4396
2023-03-26T03:49:55.855Z,88.5793
2023-03-26T03:50:58.112Z,89.0575
2023-03-26T03:52:00.370Z,90.1716
2023-03-26T03:53:02.577Z,89.6119
2023-03-26T03:54:04.797Z,88.9877
2023-03-26T03:55:06.994Z,88.2430
2023-03-26T03:56:09.155Z,87.9198
2023-03-26T03:57:11.502Z,88.4172
2023-03-26T03:58:13.666Z,87.6564
2023-03-26T03:59:15.863Z,87.4746
2023-03-26T04:00:18.179Z,86.4744
2023-03-26T04:01:20.350Z,85.7994
2023-03-26T04:02:22.618Z,86.9184
2023-03-26T04:03:33.489Z,86.2878
2023-03-26T04:04:28.516Z,86.2412
2023-03-26T04:05:30.702Z,86.7297
2023-03-26T04:06:32.893Z,86.7903
2023-03-26T04:07:35.063Z,86.5991
2023-03-26T04:08:37.275Z,86.4333
2023-03-26T04:09:39.503Z,85.7310
2023-03-26T04:13:47.857Z,85.4796
2023-03-26T04:14:50.076Z,85.8962
2023-03-26T04:15:52.425Z,87.5402
2023-03-26T04:17:56.878Z,86.8273
2023-03-26T04:18:59.114Z,85.8561
2023-03-26T04:20:01.293Z,86.6894
2023-03-26T04:21:03.500Z,86.1675
2023-03-26T04:22:05.699Z,87.3196
2023-03-26T04:23:07.916Z,86.3546
2023-03-26T04:24:10.122Z,87.0491
2023-03-26T04:25:12.260Z,87.4398
2023-03-26T04:26:14.515Z,87.1262
2023-03-26T04:27:16.653Z,87.9816
2023-03-26T04:28:18.887Z,86.3307
2023-03-26T04:29:21.082Z,86.4963
2023-03-26T04:30:23.285Z,86.9749
2023-03-26T04:31:25.446Z,86.2201
2023-03-26T04:32:27.689Z,84.6091
2023-03-26T04:33:29.837Z,83.8887
2023-03-26T04:35:34.147Z,84.7039
2023-03-26T04:36:36.281Z,85.0459
2023-03-26T04:37:38.485Z,85.1877
2023-03-26T04:38:40.700Z,85.6877
2023-03-26T04:39:42.863Z,85.4862
2023-03-26T04:40:45.101Z,85.3299
2023-03-26T04:41:47.358Z,85.1262
2023-03-26T04:42:49.606Z,84.4369
2023-03-26T04:44:53.842Z,87.0112
2023-03-26T04:45:56.125Z,86.2455
2023-03-26T04:46:58.635Z,84.7465
2023-03-26T04:48:00.881Z,84.9341
2023-03-26T04:49:03.184Z,84.8501
2023-03-26T04:50:05.404Z,85.3545
2023-03-26T04:51:07.658Z,85.8801
2023-03-26T04:52:09.865Z,84.8220
2023-03-26T04:53:12.033Z,85.1585
2023-03-26T04:54:14.264Z,85.6025
2023-03-26T04:56:18.509Z,86.5095
2023-03-26T04:57:20.686Z,85.3740
2023-03-26T04:58:22.873Z,85.1505
2023-03-26T04:59:25.081Z,85.3021
2023-03-26T05:00:27.269Z,85.6515
2023-03-26T05:01:29.533Z,85.7108
2023-03-26T05:02:31.830Z,85.3616
2023-03-26T05:03:34.050Z,85.6591
2023-03-26T05:04:36.274Z,86.2826
2023-03-26T05:05:38.492Z,85.2773
2023-03-26T05:06:40.675Z,85.3489
2023-03-26T05:07:42.906Z,86.8911
2023-03-26T05:08:45.079Z,85.6795
2023-03-26T05:09:47.308Z,86.7438
2023-03-26T05:10:49.460Z,87.7189
2023-03-26T05:12:53.686Z,86.5018
2023-03-26T05:13:55.892Z,86.3169
2023-03-26T05:14:58.099Z,87.1530
2023-03-26T05:16:00.282Z,87.1405
2023-03-26T05:17:02.508Z,86.8080
2023-03-26T05:18:04.722Z,85.8301
2023-03-26T05:21:11.074Z,86.0601
2023-03-26T05:22:13.273Z,85.6659
2023-03-26T05:23:15.518Z,87.3117
2023-03-26T05:24:17.631Z,86.3285
2023-03-26T05:25:19.900Z,85.7059
2023-03-26T05:26:22.148Z,85.1961
2023-03-26T05:27:24.327Z,84.9269
2023-03-26T05:28:26.546Z,85.8810
2023-03-26T05:29:28.799Z,85.9967
2023-03-26T05:30:30.994Z,85.7827
2023-03-26T05:31:33.182Z,87.3357
2023-03-26T05:32:35.392Z,86.2351
2023-03-26T05:33:37.751Z,86.7457
2023-03-26T05:34:40.016Z,87.3290
2023-03-26T05:35:42.281Z,86.9946
2023-03-26T05:36:44.442Z,85.7375
2023-03-26T05:37:46.653Z,84.3067
2023-03-26T05:38:48.819Z,84.5897
2023-03-26T05:39:51.056Z,85.1986
2023-03-26T05:40:53.595Z,87.0679
2023-03-26T05:41:55.994Z,86.4769
2023-03-26T05:44:00.224Z,87.9184
2023-03-26T05:45:02.445Z,88.5098
2023-03-26T05:46:04.647Z,88.6573
2023-03-26T05:47:06.872Z,88.6448
2023-03-26T05:48:09.051Z,89.4542
2023-03-26T05:49:11.266Z,89.4947
2023-03-26T05:50:13.431Z,89.7964
2023-03-26T05:51:15.701Z,90.9025
2023-03-26T05:52:17.939Z,91.2069
2023-03-26T05:54:22.261Z,92.5454
2023-03-26T05:55:24.508Z,92.4965
2023-03-26T05:57:28.892Z,92.3128
2023-03-26T05:58:31.139Z,92.6213
2023-03-26T05:59:33.349Z,91.3415
2023-03-26T06:00:35.509Z,92.7163
2023-03-26T06:01:37.711Z,93.4246
2023-03-26T06:02:39.911Z,93.6537
2023-03-26T06:03:42.168Z,93.5901
2023-03-26T06:04:44.393Z,93.9624
2023-03-26T06:05:46.623Z,94.4606
2023-03-26T06:06:48.787Z,94.9671
2023-03-26T06:07:51.033Z,95.3155
2023-03-26T06:09:01.395Z,95.1277
2023-03-26T06:09:56.867Z,95.3433
2023-03-26T06:10:59.043Z,95.4571
2023-03-26T06:12:01.220Z,95.5179
2023-03-26T06:13:03.490Z,95.4610
2023-03-26T06:14:05.709Z,95.3864
2023-03-26T06:15:07.860Z,95.4285
2023-03-26T06:16:10.134Z,95.5806
2023-03-26T06:17:13.746Z,95.1252
2023-03-26T06:18:15.984Z,94.7704
2023-03-26T06:19:18.122Z,93.9787
2023-03-26T06:20:20.341Z,93.7527
2023-03-26T06:21:22.611Z,93.1041
2023-03-26T06:22:24.839Z,92.6793
2023-03-26T06:23:27.019Z,93.3435
2023-03-26T06:24:29.161Z,93.6262
2023-03-26T06:25:31.355Z,93.8259
2023-03-26T06:26:33.563Z,93.5888
2023-03-26T06:27:35.763Z,92.5002
2023-03-26T06:28:37.935Z,92.9718
2023-03-26T06:29:40.150Z,93.7739
2023-03-26T06:30:42.339Z,93.3350
2023-03-26T06:31:44.563Z,92.4470
2023-03-26T06:32:46.792Z,92.1454
2023-03-26T06:33:48.999Z,93.0853
2023-03-26T06:34:51.234Z,93.8979
2023-03-26T06:35:53.432Z,94.3394
2023-03-26T06:36:55.625Z,94.4876
2023-03-26T06:37:57.803Z,94.7917
2023-03-26T06:40:02.012Z,94.5156
2023-03-26T06:41:04.238Z,94.5345
2023-03-26T06:42:06.452Z,94.2606
2023-03-26T06:43:10.941Z,94.0977
2023-03-26T06:44:09.093Z,94.5151
2023-03-26T06:45:11.312Z,94.8006
2023-03-26T06:46:13.552Z,94.9322
2023-03-26T06:47:15.787Z,94.5727
2023-03-26T06:48:18.019Z,94.9666
2023-03-26T06:49:20.180Z,95.1711
2023-03-26T06:50:22.452Z,95.3011
2023-03-26T06:51:24.642Z,95.2959
2023-03-26T06:52:26.873Z,94.8991
2023-03-26T06:53:29.024Z,95.1461
2023-03-26T06:54:31.288Z,94.7829
2023-03-26T06:55:33.557Z,94.6529
2023-03-26T06:56:35.729Z,94.4614
2023-03-26T06:57:37.964Z,94.6199
2023-03-26T06:58:40.233Z,94.6240
2023-03-26T06:59:42.412Z,94.7203
2023-03-26T07:00:44.731Z,94.8508
2023-03-26T07:01:46.924Z,95.3437
2023-03-26T07:02:49.128Z,95.5611
2023-03-26T07:03:51.333Z,95.3035
2023-03-26T07:04:53.522Z,95.4757
2023-03-26T07:05:55.745Z,95.7221
2023-03-26T07:06:57.970Z,95.8122
2023-03-26T07:08:00.160Z,94.5574
2023-03-26T07:10:04.417Z,91.8039
2023-03-26T07:11:06.681Z,92.8659
2023-03-26T07:12:08.863Z,92.4481
2023-03-26T07:13:11.157Z,89.8718
2023-03-26T07:14:13.383Z,88.6673
2023-03-26T07:15:15.577Z,88.1569
2023-03-26T07:16:17.789Z,86.4429
2023-03-26T07:17:19.962Z,87.1761
2023-03-26T07:18:22.199Z,87.4432
2023-03-26T07:19:24.337Z,84.7471
2023-03-26T07:21:28.608Z,87.0326
2023-03-26T07:22:30.809Z,87.2444
2023-03-26T07:23:33.169Z,87.2443
2023-03-26T07:24:35.373Z,86.6454
2023-03-26T07:25:37.606Z,86.7765
2023-03-26T07:26:39.792Z,86.8363
2023-03-26T07:27:42.021Z,85.8165
2023-03-26T07:28:44.230Z,85.9309
2023-03-26T07:29:47.949Z,86.6714
2023-03-26T07:30:50.088Z,87.2552
2023-03-26T07:31:52.530Z,87.3154
2023-03-26T07:32:54.775Z,87.6664
2023-03-26T07:33:56.957Z,87.9273
2023-03-26T07:34:59.190Z,88.2564
2023-03-26T07:36:01.370Z,88.8504
2023-03-26T07:37:03.637Z,88.9517
2023-03-26T07:38:05.853Z,89.5192
2023-03-26T07:39:08.012Z,89.0676
2023-03-26T07:40:10.261Z,88.5617
2023-03-26T07:42:14.513Z,88.2672
2023-03-26T07:43:16.668Z,88.1044
2023-03-26T07:44:18.877Z,88.6560
2023-03-26T07:45:21.082Z,90.5698
2023-03-26T07:46:23.307Z,89.5106
2023-03-26T07:48:27.654Z,87.4871
2023-03-26T07:49:29.868Z,87.8537
2023-03-26T07:50:32.077Z,88.3630
2023-03-26T07:51:34.272Z,88.1554
2023-03-26T07:52:36.499Z,87.3120
2023-03-26T07:53:38.721Z,87.4027
2023-03-26T07:54:41.026Z,87.6174
2023-03-26T07:55:43.223Z,88.0126
2023-03-26T07:56:45.558Z,87.9521
2023-03-26T07:57:47.771Z,87.7442
2023-03-26T07:58:49.912Z,87.7126
2023-03-26T08:02:58.330Z,90.2057
2023-03-26T08:05:02.756Z,88.8111
2023-03-26T08:06:05.176Z,88.9681
2023-03-26T08:07:07.343Z,88.4076
2023-03-26T08:08:09.558Z,88.8115
2023-03-26T08:09:11.742Z,90.3741
2023-03-26T08:10:13.932Z,90.6181
2023-03-26T08:12:18.130Z,90.9299
2023-03-26T08:13:20.370Z,90.9722
2023-03-26T08:14:22.572Z,90.9311
2023-03-26T08:15:24.750Z,90.6398
2023-03-26T08:17:30.647Z,90.6429
2023-03-26T08:18:29.226Z,90.7432
2023-03-26T08:19:31.453Z,90.4124
2023-03-26T08:20:33.607Z,89.9481
2023-03-26T08:21:35.837Z,90.0506
2023-03-26T08:22:37.959Z,90.3361
2023-03-26T08:23:50.371Z,90.4323
2023-03-26T08:24:43.833Z,90.2995
2023-03-26T08:25:46.061Z,90.7155
2023-03-26T08:26:48.220Z,91.3622
2023-03-26T08:27:50.448Z,91.1259
2023-03-26T08:28:52.581Z,90.8939
2023-03-26T08:29:54.761Z,91.2818
2023-03-26T08:30:57.317Z,91.9711
2023-03-26T08:32:00.024Z,92.0702
2023-03-26T08:34:04.215Z,91.5114
2023-03-26T08:35:06.421Z,91.7078
2023-03-26T08:37:10.696Z,92.7983
2023-03-26T08:38:12.889Z,91.9452
2023-03-26T08:39:15.009Z,91.5198
2023-03-26T08:41:19.229Z,91.7123
2023-03-26T08:43:23.505Z,91.4580
2023-03-26T08:44:25.703Z,91.4043
2023-03-26T08:45:27.976Z,91.3174
2023-03-26T08:46:30.159Z,90.9135
2023-03-26T08:47:32.329Z,90.9965
2023-03-26T08:48:34.625Z,90.7245
2023-03-26T08:49:36.823Z,91.2484
2023-03-26T08:50:38.977Z,90.5997
2023-03-26T08:51:41.103Z,90.6538
2023-03-26T08:52:43.332Z,91.1931
2023-03-26T08:53:45.467Z,90.7673
2023-03-26T08:54:47.695Z,90.0322
2023-03-26T08:55:49.832Z,90.4638
2023-03-26T08:57:54.074Z,90.5002
2023-03-26T08:58:56.286Z,90.4686
2023-03-26T08:59:59.278Z,90.2707
2023-03-26T09:00:58.489Z,89.8821
2023-03-26T09:02:00.735Z,90.2422
2023-03-26T09:03:02.900Z,90.1176
2023-03-26T09:04:05.108Z,89.6884
2023-03-26T09:05:07.405Z,89.7884
2023-03-26T09:06:09.515Z,91.0951
2023-03-26T09:07:11.738Z,90.9085
2023-03-26T09:09:19.153Z,90.7453
2023-03-26T09:10:17.419Z,91.1405
2023-03-26T09:11:19.627Z,90.8437
2023-03-26T09:12:22.842Z,90.8849
2023-03-26T09:13:23.208Z,91.4670
2023-03-26T09:14:25.373Z,91.4554
2023-03-26T09:15:27.534Z,90.3576
2023-03-26T09:16:29.762Z,90.1072
2023-03-26T09:18:33.959Z,87.8798
2023-03-26T09:19:36.142Z,89.0979
2023-03-26T09:20:38.422Z,89.8510
2023-03-26T09:22:42.683Z,89.5135
2023-03-26T09:23:44.865Z,89.6380
2023-03-26T09:25:49.065Z,89.3154
2023-03-26T09:26:51.277Z,88.5401
2023-03-26T09:27:53.441Z,89.1252
2023-03-26T09:28:55.613Z,89.2360
2023-03-26T09:29:57.772Z,88.0843
2023-03-26T09:30:59.976Z,87.1111
2023-03-26T09:32:02.133Z,87.3875
2023-03-26T09:33:04.324Z,87.1993
2023-03-26T09:34:06.504Z,88.0710
2023-03-26T09:35:08.648Z,88.2126
2023-03-26T09:36:11.225Z,88.1567
2023-03-26T09:37:13.442Z,87.7064
2023-03-26T09:38:15.632Z,87.8012
2023-03-26T09:39:17.802Z,87.7583
2023-03-26T09:40:19.990Z,87.2924
2023-03-26T09:41:22.200Z,87.2014
2023-03-26T09:42:24.394Z,86.9220
2023-03-26T09:44:28.670Z,86.0598
2023-03-26T09:45:30.948Z,86.3002
2023-03-26T09:47:35.182Z,86.1486
2023-03-26T09:48:37.413Z,86.5059
2023-03-26T09:49:39.557Z,85.9807
2023-03-26T09:50:41.778Z,85.6831
2023-03-26T09:51:44.038Z,85.7259
2023-03-26T09:52:46.196Z,85.0445
2023-03-26T09:53:48.355Z,85.1002
2023-03-26T09:54:50.585Z,85.2460
2023-03-26T09:56:54.876Z,84.3089
2023-03-26T09:57:56.994Z,83.2713
2023-03-26T09:58:59.193Z,81.6291
2023-03-26T10:00:01.367Z,81.5945
2023-03-26T10:01:03.636Z,82.1697
2023-03-26T10:02:05.894Z,83.5022
2023-03-26T10:03:08.148Z,82.8394
2023-03-26T10:04:10.373Z,82.9680
2023-03-26T10:05:12.597Z,83.5542
2023-03-26T10:06:14.856Z,83.3027
2023-03-26T10:07:17.020Z,82.1855
2023-03-26T10:08:19.287Z,82.8066
2023-03-26T10:09:21.439Z,83.4051
2023-03-26T10:10:23.654Z,83.3783
2023-03-26T10:11:25.814Z,82.9704
2023-03-26T10:12:28.206Z,83.0239
2023-03-26T10:13:30.497Z,83.0957
2023-03-26T10:14:32.658Z,83.3380
2023-03-26T10:15:34.961Z,82.5437
2023-03-26T10:16:37.301Z,82.2478
2023-03-26T10:17:39.569Z,81.3016
2023-03-26T10:18:41.713Z,82.1372
2023-03-26T10:19:44.236Z,82.2086
2023-03-26T10:20:46.527Z,80.8387
2023-03-26T10:21:48.718Z,80.4608
2023-03-26T10:22:50.977Z,80.7304
2023-03-26T10:23:53.120Z,80.4429
2023-03-26T10:24:55.363Z,80.6925
2023-03-26T10:25:57.673Z,81.2648
2023-03-26T10:27:09.113Z,81.0536
2023-03-26T10:28:03.589Z,80.6027
2023-03-26T10:29:05.824Z,80.8871
2023-03-26T10:30:08.014Z,80.7755
2023-03-26T10:31:10.179Z,80.4604
2023-03-26T10:32:12.452Z,79.8440
2023-03-26T10:33:14.891Z,80.2777
2023-03-26T10:34:28.659Z,80.3908
2023-03-26T10:35:20.833Z,80.1951
2023-03-26T10:37:25.153Z,79.4170
2023-03-26T10:38:27.385Z,79.6573
2023-03-26T10:39:37.216Z,79.9105
2023-03-26T10:40:33.265Z,79.8311
2023-03-26T10:41:35.498Z,80.3463
2023-03-26T10:42:37.641Z,80.5212
2023-03-26T10:43:39.829Z,80.2783
2023-03-26T10:44:42.048Z,80.6456
2023-03-26T10:45:44.340Z,80.3974
2023-03-26T10:46:46.715Z,80.3877
2023-03-26T10:47:49.129Z,81.1147
2023-03-26T10:49:53.310Z,80.3524
2023-03-26T10:50:55.785Z,79.2331
2023-03-26T10:51:58.872Z,78.2222
2023-03-26T10:53:01.083Z,78.4679
2023-03-26T10:54:03.500Z,78.0018
2023-03-26T10:55:05.695Z,79.4190
2023-03-26T10:56:07.948Z,79.6505
2023-03-26T10:57:10.317Z,79.5429
2023-03-26T10:58:12.494Z,79.2215
2023-03-26T10:59:15.057Z,79.1130
2023-03-26T11:00:17.516Z,77.8176
2023-03-26T11:01:19.790Z,77.4951
2023-03-26T11:02:29.299Z,78.0985
2023-03-26T11:03:25.937Z,78.4328
2023-03-26T11:04:28.082Z,78.1401
2023-03-26T11:05:30.366Z,78.1581
2023-03-26T11:06:32.629Z,78.5215
2023-03-26T11:07:34.821Z,78.6538
2023-03-26T11:08:36.950Z,77.5626
2023-03-26T11:09:39.207Z,76.6193
2023-03-26T11:10:41.411Z,75.8736
2023-03-26T11:11:43.932Z,76.4396
2023-03-26T11:12:46.180Z,76.7684
2023-03-26T11:13:48.361Z,77.3460
2023-03-26T11:14:50.628Z,77.8525
2023-03-26T11:15:53.046Z,77.2856
2023-03-26T11:16:55.387Z,75.7187
2023-03-26T11:17:57.614Z,74.9909
2023-03-26T11:18:59.754Z,74.3136
2023-03-26T11:20:01.953Z,74.2918
2023-03-26T11:21:19.106Z,74.0168
2023-03-26T11:22:07.964Z,75.4055
2023-03-26T11:23:10.100Z,73.0698
2023-03-26T11:24:13.264Z,73.3273
2023-03-26T11:25:15.418Z,73.1826
2023-03-26T11:26:17.690Z,73.9428
2023-03-26T11:27:21.323Z,73.0129
2023-03-26T11:28:21.140Z,72.8022
2023-03-26T11:29:32.297Z,73.4803
2023-03-26T11:30:26.917Z,73.1094
2023-03-26T11:31:29.243Z,73.5345
2023-03-26T11:32:31.513Z,73.2912
2023-03-26T11:33:33.619Z,73.5485
2023-03-26T11:34:35.822Z,72.8720
2023-03-26T11:35:40.625Z,73.4737
2023-03-26T11:36:39.150Z,71.3384
2023-03-26T11:37:41.324Z,72.3631
2023-03-26T11:39:45.581Z,73.1255
2023-03-26T11:40:47.680Z,72.2047
2023-03-26T11:41:49.880Z,72.5920
2023-03-26T11:42:52.045Z,72.2165
2023-03-26T11:43:54.368Z,71.4749
2023-03-26T11:44:56.794Z,71.6132
2023-03-26T11:45:59.131Z,71.0602
2023-03-26T11:47:01.370Z,71.7743
2023-03-26T11:48:03.571Z,71.5254
2023-03-26T11:49:05.719Z,72.0162
2023-03-26T11:52:12.000Z,71.4686
2023-03-26T11:53:14.183Z,71.0774
2023-03-26T11:54:16.405Z,71.2336
2023-03-26T11:55:18.608Z,71.0545
2023-03-26T11:56:20.837Z,70.6511
2023-03-26T11:57:23.067Z,70.7980
2023-03-26T11:58:25.261Z,68.5873
2023-03-26T11:59:27.421Z,69.2900
2023-03-26T12:01:31.792Z,68.9247
2023-03-26T12:02:34.156Z,69.0574
2023-03-26T12:04:38.524Z,68.4440
2023-03-26T12:05:40.692Z,68.0402
2023-03-26T12:06:42.794Z,68.9751
2023-03-26T12:07:44.913Z,68.5355
2023-03-26T12:08:47.093Z,68.5550
2023-03-26T12:09:49.246Z,68.9529
2023-03-26T12:10:51.427Z,68.6070
2023-03-26T12:11:53.635Z,69.0333
2023-03-26T12:12:55.822Z,69.0889
2023-03-26T12:13:58.046Z,67.2852
2023-03-26T12:15:00.204Z,67.5856
2023-03-26T12:16:02.357Z,67.9940
2023-03-26T12:17:04.623Z,67.8174
2023-03-26T12:18:27.757Z,66.8440
2023-03-26T12:19:07.848Z,65.4861
2023-03-26T12:20:09.962Z,64.9559
2023-03-26T12:21:12.248Z,65.4802
2023-03-26T12:22:14.409Z,65.4716
2023-03-26T12:23:16.707Z,65.3143
2023-03-26T12:24:18.966Z,65.8639
2023-03-26T12:25:21.181Z,66.1181
2023-03-26T12:26:23.357Z,66.4252
2023-03-26T12:27:25.511Z,66.1088
2023-03-26T12:28:27.660Z,66.0018
2023-03-26T12:29:29.807Z,66.5315
2023-03-26T12:30:32.068Z,67.3425
2023-03-26T12:31:34.270Z,67.1410
2023-03-26T12:32:45.868Z,69.5161
2023-03-26T12:33:40.220Z,72.3161
2023-03-26T12:34:42.434Z,73.3031
2023-03-26T12:35:44.695Z,74.3991
2023-03-26T12:36:46.950Z,73.7542
2023-03-26T12:39:16.731Z,71.9674
2023-03-26T12:40:09.271Z,72.3841
2023-03-26T12:40:58.524Z,71.3542
2023-03-26T12:47:56.670Z,69.1096
2023-03-26T12:47:58.583Z,68.7888
2023-03-26T12:48:16.177Z,68.7931
2023-03-26T12:49:18.934Z,67.9165
2023-03-26T12:50:34.436Z,66.2456
2023-03-26T12:51:24.900Z,64.5860
2023-03-26T12:52:27.053Z,63.0220
2023-03-26T12:54:31.285Z,61.3020
2023-03-26T12:55:33.443Z,61.1670
2023-03-26T12:57:37.991Z,62.8641
2023-03-26T12:59:42.148Z,61.8013
2023-03-26T13:00:44.259Z,62.4054
2023-03-26T13:01:46.347Z,62.3089
2023-03-26T13:02:48.611Z,62.4262
2023-03-26T13:03:52.824Z,62.9265
2023-03-26T13:05:05.050Z,65.0608
2023-03-26T13:05:58.580Z,64.7731
2023-03-26T13:07:02.268Z,64.7448
2023-03-26T13:08:04.722Z,66.7251
2023-03-26T13:09:06.922Z,67.9404
2023-03-26T13:10:09.216Z,67.6595
2023-03-26T13:11:11.464Z,67.6196
2023-03-26T13:12:13.758Z,67.6767
2023-03-26T13:13:15.881Z,66.7507
2023-03-26T13:14:18.113Z,67.1378
2023-03-26T13:15:20.326Z,66.8582
2023-03-26T13:16:22.505Z,65.9609
2023-03-26T13:17:24.893Z,66.7756
2023-03-26T13:18:27.038Z,67.6209
2023-03-26T13:19:29.221Z,68.4228
2023-03-26T13:20:31.430Z,68.2539
2023-03-26T13:21:33.630Z,66.7262
2023-03-26T13:22:35.807Z,68.8381
2023-03-26T13:23:37.937Z,67.9192
2023-03-26T13:24:40.233Z,64.8165
2023-03-26T13:25:42.333Z,63.0415
2023-03-26T13:26:44.484Z,61.4752
2023-03-26T13:27:46.586Z,63.5761
2023-03-26T13:30:52.918Z,66.2008
2023-03-26T13:31:55.352Z,67.4644
2023-03-26T13:32:57.573Z,65.0127
2023-03-26T13:33:59.765Z,65.4310
2023-03-26T13:35:01.966Z,66.8505
2023-03-26T13:36:21.768Z,68.5540
2023-03-26T13:37:07.746Z,67.6776
2023-03-26T13:39:12.002Z,64.0702
2023-03-26T13:40:14.193Z,62.9411
2023-03-26T13:42:18.516Z,64.8589
2023-03-26T13:43:20.626Z,61.7597
2023-03-26T13:44:22.806Z,62.2822
2023-03-26T13:45:24.945Z,63.0610